Time;durP1;ratioP1;P1;durP2;ratioP2;P2;SDS_P1;SDS_P2;PMS_P1;PMS_P2;Temp;Humidity;BMP_temperature;BMP_pressure;BME280_temperature;BME280_humidity;BME280_pressure;Samples;Min_cycle;Max_cycle;Signal;HPM_P1;HPM_P2
2022/02/26 00:01:41;;;;;;;9.02;3.28;;;;;;;3.61;72.03;101259.84;1086620;54;20038;-80
2022/02/26 00:02:45;;;;;;;11.65;2.90;;;;;;;3.62;72.26;101269.50;1088256;54;20956;-80
2022/02/26 00:03:50;;;;;;;7.32;2.30;;;;;;;3.61;72.22;101266.00;1088441;54;20753;-82
2022/02/26 00:04:54;;;;;;;5.95;2.25;;;;;;;3.75;71.64;101260.91;1088517;54;20072;-80
2022/02/26 00:06:08;;;;;;;7.50;2.63;;;;;;;3.93;71.24;101260.16;1088394;54;20124;-80
2022/02/26 00:07:10;;;;;;;5.68;2.00;;;;;;;4.04;70.80;101258.69;1088468;54;20043;-81
2022/02/26 00:08:15;;;;;;;8.02;2.20;;;;;;;4.10;70.59;101262.84;1088458;54;20030;-81
2022/02/26 00:09:17;;;;;;;5.38;1.90;;;;;;;4.16;70.59;101267.84;1088413;54;20103;-82
2022/02/26 00:10:21;;;;;;;6.32;2.38;;;;;;;4.10;70.58;101262.00;1088537;54;20075;-82
2022/02/26 00:11:24;;;;;;;5.18;2.28;;;;;;;4.16;70.65;101262.53;1088592;54;20046;-81
2022/02/26 00:12:28;;;;;;;5.57;1.92;;;;;;;4.16;70.53;101262.53;1136491;31;20817;-79
2022/02/26 00:13:55;;;;;;;6.97;2.30;;;;;;;4.21;70.67;101257.91;1088492;54;20627;-81
2022/02/26 00:14:57;;;;;;;9.45;3.10;;;;;;;4.29;70.23;101257.53;1094945;46;20026;-81
2022/02/26 00:16:21;;;;;;;6.35;2.17;;;;;;;4.22;70.53;101262.28;1093764;46;20019;-82
2022/02/26 00:19:08;;;;;;;10.57;2.58;;;;;;;4.04;70.68;101269.28;1088439;54;20037;-81
2022/02/26 00:20:11;;;;;;;8.27;3.13;;;;;;;4.19;70.47;101278.28;1088373;54;20043;-82
2022/02/26 00:21:17;;;;;;;8.18;2.42;;;;;;;4.20;70.23;101271.22;1088370;54;20035;-80
2022/02/26 00:22:19;;;;;;;7.95;2.85;;;;;;;4.28;70.15;101276.13;1088283;54;20041;-81
2022/02/26 00:23:26;;;;;;;5.45;2.00;;;;;;;4.32;69.94;101273.25;1088394;54;20029;-81
2022/02/26 00:24:31;;;;;;;6.57;2.10;;;;;;;4.29;69.96;101278.72;1088374;54;20039;-80
2022/02/26 00:25:33;;;;;;;5.65;2.15;;;;;;;4.30;69.87;101280.41;1088380;54;20023;-81
2022/02/26 00:26:38;;;;;;;7.45;2.00;;;;;;;4.31;69.74;101278.63;1094558;39;20571;-81
2022/02/26 00:27:40;;;;;;;5.95;1.70;;;;;;;4.30;69.96;101283.06;1088455;54;20082;-83
2022/02/26 00:28:48;;;;;;;5.22;2.10;;;;;;;4.33;69.99;101282.91;1088342;54;20026;-81
2022/02/26 00:29:50;;;;;;;6.32;2.40;;;;;;;4.12;70.38;101284.81;1088440;54;20019;-80
2022/02/26 00:30:58;;;;;;;7.93;2.20;;;;;;;4.19;70.17;101290.69;1088461;54;20019;-82
2022/02/26 00:32:01;;;;;;;7.32;2.35;;;;;;;4.26;70.22;101293.88;1088333;54;20039;-81
2022/02/26 00:33:07;;;;;;;7.80;2.33;;;;;;;4.26;70.00;101294.75;1088473;54;20026;-80
2022/02/26 00:34:12;;;;;;;5.45;1.83;;;;;;;4.29;70.06;101288.44;1088488;54;20113;-80
2022/02/26 00:35:16;;;;;;;6.43;2.35;;;;;;;4.19;69.80;101282.75;1088441;54;20026;-81
2022/02/26 00:36:19;;;;;;;8.68;2.80;;;;;;;4.15;70.43;101289.97;1088434;54;20030;-80
2022/02/26 00:37:24;;;;;;;8.55;3.08;;;;;;;3.87;70.70;101293.03;1088176;54;20035;-78
2022/02/26 00:38:26;;;;;;;8.45;2.78;;;;;;;3.85;71.22;101300.19;1088303;54;20026;-81
2022/02/26 00:39:30;;;;;;;7.43;3.25;;;;;;;3.97;70.65;101293.47;1088235;54;20038;-79
2022/02/26 00:40:35;;;;;;;10.43;2.78;;;;;;;4.06;70.46;101293.91;1088224;54;20039;-79
2022/02/26 00:41:39;;;;;;;6.25;2.15;;;;;;;4.05;70.35;101296.63;1088235;54;20037;-80
2022/02/26 00:42:43;;;;;;;6.85;2.35;;;;;;;4.07;70.26;101300.03;1088345;54;20025;-78
2022/02/26 00:43:47;;;;;;;5.35;1.98;;;;;;;4.12;70.11;101303.34;1088377;54;20022;-81
2022/02/26 00:44:50;;;;;;;8.55;2.63;;;;;;;3.96;70.56;101305.00;1088346;54;20022;-82
2022/02/26 00:45:54;;;;;;;6.80;2.67;;;;;;;3.90;70.68;101308.78;1088400;54;20018;-78
2022/02/26 00:46:58;;;;;;;8.57;2.42;;;;;;;3.93;70.78;101307.78;1088264;54;20041;-80
2022/02/26 00:48:02;;;;;;;5.38;2.30;;;;;;;3.95;70.79;101308.56;1088291;54;20034;-79
2022/02/26 00:50:34;;;;;;;6.70;1.88;;;;;;;3.94;70.31;101317.44;1088320;54;20035;-79
2022/02/26 00:51:37;;;;;;;4.97;2.20;;;;;;;4.00;70.29;101317.13;1088370;54;20042;-80
2022/02/26 00:52:41;;;;;;;6.97;2.00;;;;;;;3.93;70.63;101321.00;1088427;54;20094;-79
2022/02/26 00:53:47;;;;;;;6.63;2.38;;;;;;;4.00;70.58;101325.94;1089910;46;20035;-80
2022/02/26 00:54:52;;;;;;;6.07;2.10;;;;;;;4.02;70.07;101324.06;1088460;54;20026;-79
2022/02/26 00:56:10;;;;;;;6.63;2.03;;;;;;;4.04;70.15;101319.56;1088397;54;20675;-80
2022/02/26 00:57:15;;;;;;;5.90;2.33;;;;;;;4.01;69.89;101326.78;1088417;54;20026;-79
2022/02/26 00:58:18;;;;;;;6.47;2.17;;;;;;;4.01;70.02;101334.72;1088355;54;20034;-78
2022/02/26 00:59:22;;;;;;;5.15;1.73;;;;;;;4.00;69.97;101327.72;1088220;54;20761;-80
2022/02/26 01:00:29;;;;;;;5.75;2.03;;;;;;;4.01;70.01;101332.09;1088172;54;20031;-80
2022/02/26 01:01:35;;;;;;;6.57;2.08;;;;;;;3.98;70.28;101332.22;1088206;54;20790;-80
2022/02/26 01:02:40;;;;;;;7.60;2.78;;;;;;;3.86;70.33;101333.66;1087900;54;20026;-79
2022/02/26 01:03:42;;;;;;;9.48;2.80;;;;;;;3.82;70.50;101337.38;1094537;39;20675;-80
2022/02/26 01:04:52;;;;;;;5.75;2.30;;;;;;;3.86;70.21;101338.94;1088534;54;20042;-80
2022/02/26 01:05:54;;;;;;;6.65;2.10;;;;;;;3.82;70.42;101342.66;1088504;54;20046;-79
2022/02/26 01:07:07;;;;;;;5.68;2.15;;;;;;;3.84;70.24;101341.66;1088445;54;20037;-80
2022/02/26 01:08:11;;;;;;;6.60;2.30;;;;;;;3.86;70.35;101339.81;1088563;54;20046;-78
2022/02/26 01:09:23;;;;;;;4.45;1.67;;;;;;;3.88;70.28;101340.56;1096051;46;20078;-82
2022/02/26 01:10:25;;;;;;;7.55;2.65;;;;;;;3.88;70.18;101342.38;1088582;54;20037;-79
2022/02/26 01:13:58;;;;;;;4.28;1.60;;;;;;;3.82;70.12;101354.09;1088591;54;19991;-80
2022/02/26 01:15:18;;;;;;;4.90;1.95;;;;;;;3.78;70.39;101352.50;1093290;46;20018;-79
2022/02/26 01:16:20;;;;;;;8.07;2.70;;;;;;;3.79;70.07;101353.38;1092133;46;20018;-81
2022/02/26 01:17:59;;;;;;;7.18;2.20;;;;;;;3.74;70.61;101356.22;1088610;54;20058;-80
2022/02/26 01:19:01;;;;;;;6.70;2.20;;;;;;;3.74;70.44;101359.72;1091049;46;20025;-81
2022/02/26 01:21:46;;;;;;;5.47;1.88;;;;;;;3.80;70.16;101358.59;1088531;54;20042;-81
2022/02/26 01:22:50;;;;;;;8.23;2.20;;;;;;;3.82;70.04;101359.38;1088324;54;20030;-78
2022/02/26 01:23:52;;;;;;;4.72;2.03;;;;;;;3.83;70.17;101354.94;1088426;54;20035;-79
2022/02/26 01:24:57;;;;;;;5.18;2.13;;;;;;;3.78;70.47;101356.94;1088331;54;20070;-79
2022/02/26 01:26:01;;;;;;;5.90;2.05;;;;;;;3.78;70.72;101357.78;1090665;46;20045;-81
2022/02/26 01:27:17;;;;;;;6.88;2.58;;;;;;;3.76;70.88;101367.59;1088398;54;20022;-80
2022/02/26 01:28:21;;;;;;;6.82;2.40;;;;;;;3.81;70.56;101355.00;1088454;54;20789;-81
2022/02/26 01:29:25;;;;;;;5.47;1.98;;;;;;;3.83;70.45;101362.88;1097724;39;20564;-80
2022/02/26 01:30:28;;;;;;;6.30;2.20;;;;;;;3.85;70.50;101367.19;1088472;54;20031;-82
2022/02/26 01:31:33;;;;;;;8.88;2.30;;;;;;;3.89;70.28;101360.81;1088500;54;20813;-83
2022/02/26 01:32:35;;;;;;;5.75;2.10;;;;;;;3.90;70.26;101369.63;1088368;54;20055;-80
2022/02/26 01:33:45;;;;;;;5.95;1.83;;;;;;;3.88;70.56;101360.91;1088344;54;20098;-81
2022/02/26 01:34:47;;;;;;;6.95;2.28;;;;;;;3.87;70.50;101362.66;1088329;54;20034;-79
2022/02/26 01:35:51;;;;;;;6.40;2.30;;;;;;;3.88;70.50;101363.53;1089342;39;20733;-80
2022/02/26 01:36:58;;;;;;;7.55;2.28;;;;;;;3.92;70.44;101366.91;1088522;54;20015;-81
2022/02/26 01:38:00;;;;;;;8.93;2.63;;;;;;;3.94;70.31;101362.41;1088503;54;20018;-80
2022/02/26 01:39:34;;;;;;;6.63;2.47;;;;;;;3.86;70.63;101355.69;1090530;39;20578;-80
2022/02/26 01:40:36;;;;;;;5.22;1.75;;;;;;;3.84;70.74;101367.25;1088444;54;20111;-79
2022/02/26 01:41:47;;;;;;;6.82;2.28;;;;;;;3.72;71.25;101358.94;1088406;54;20105;-79
2022/02/26 01:42:49;;;;;;;6.95;2.83;;;;;;;3.67;71.44;101360.09;1088514;54;20034;-79
2022/02/26 01:45:40;;;;;;;6.10;2.60;;;;;;;3.56;71.87;101358.75;1088419;54;20118;-78
2022/02/26 01:47:16;;;;;;;9.25;3.42;;;;;;;3.64;71.87;101354.91;1088374;54;20034;-80
2022/02/26 01:48:18;;;;;;;5.55;2.33;;;;;;;3.73;71.47;101355.34;1088599;54;20018;-79
2022/02/26 01:49:25;;;;;;;5.10;1.92;;;;;;;3.82;70.85;101361.19;1088546;54;20019;-79
2022/02/26 01:50:27;;;;;;;5.35;2.40;;;;;;;3.74;71.22;101356.22;1088437;54;20022;-79
2022/02/26 01:51:32;;;;;;;10.10;2.55;;;;;;;3.63;71.53;101366.41;1088321;54;20015;-79
2022/02/26 01:52:36;;;;;;;9.80;3.22;;;;;;;3.63;71.85;101369.06;1088285;54;20059;-81
2022/02/26 01:53:42;;;;;;;9.43;2.90;;;;;;;3.63;71.66;101369.06;1090561;46;20014;-79
2022/02/26 01:54:45;;;;;;;8.68;2.78;;;;;;;3.63;71.82;101369.06;1088447;54;20038;-79
2022/02/26 01:55:52;;;;;;;7.65;2.80;;;;;;;3.73;71.71;101365.94;1088253;54;20041;-79
2022/02/26 01:57:03;;;;;;;5.82;2.38;;;;;;;3.81;71.66;101365.59;1088316;54;20026;-80
2022/02/26 01:58:08;;;;;;;5.22;2.10;;;;;;;3.86;71.27;101362.75;1088272;54;20018;-80
2022/02/26 01:59:10;;;;;;;7.47;2.70;;;;;;;3.77;71.52;101365.81;1091908;46;20038;-80
2022/02/26 02:00:23;;;;;;;7.90;2.75;;;;;;;3.83;71.75;101365.53;1088243;54;20034;-80
2022/02/26 02:01:25;;;;;;;6.82;2.70;;;;;;;3.59;72.05;101365.69;1088290;54;20022;-80
2022/02/26 02:02:41;;;;;;;8.38;3.10;;;;;;;3.45;72.67;101370.75;1088323;54;20678;-78
2022/02/26 02:03:43;;;;;;;8.93;3.30;;;;;;;3.35;72.90;101365.84;1088263;54;20754;-81
2022/02/26 02:04:53;;;;;;;8.05;3.72;;;;;;;3.38;73.07;101368.34;1088396;54;20026;-79
2022/02/26 02:05:56;;;;;;;;;;;;;;;3.28;73.65;101364.38;1088455;54;20018;-80
2022/02/26 02:07:01;;;;;;;10.30;3.22;;;;;;;3.29;73.18;101366.09;1088243;54;19942;-79
2022/02/26 02:08:06;;;;;;;10.43;3.35;;;;;;;3.39;73.16;101364.78;1088321;54;20038;-80
2022/02/26 02:09:11;;;;;;;6.90;2.88;;;;;;;3.51;72.61;101366.03;1088157;54;20030;-81
2022/02/26 02:10:13;;;;;;;6.63;2.60;;;;;;;3.61;72.11;101360.34;1088364;54;20055;-81
2022/02/26 02:11:33;;;;;;;8.07;3.00;;;;;;;3.54;72.38;101370.34;1088438;54;20082;-78
2022/02/26 02:12:35;;;;;;;7.78;2.80;;;;;;;3.56;72.33;101357.88;1088319;54;20723;-79
2022/02/26 02:13:41;;;;;;;7.10;2.95;;;;;;;3.63;72.36;101358.47;1088321;54;20018;-79
2022/02/26 02:14:44;;;;;;;8.25;3.00;;;;;;;3.32;73.18;101360.69;1088304;54;20055;-79
2022/02/26 02:15:50;;;;;;;10.27;3.70;;;;;;;3.14;73.48;101362.31;1088361;54;20018;-81
2022/02/26 02:16:52;;;;;;;9.43;3.95;;;;;;;3.08;74.11;101357.31;1088396;54;20046;-79
2022/02/26 02:17:57;;;;;;;11.20;3.95;;;;;;;3.09;74.11;101364.31;1088287;54;20034;-80
2022/02/26 02:19:08;;;;;;;8.10;3.83;;;;;;;3.02;74.64;101362.84;1088300;54;20044;-81
2022/02/26 02:20:11;;;;;;;11.07;3.42;;;;;;;2.94;74.71;101371.09;1088347;54;20086;-79
2022/02/26 02:21:16;;;;;;;8.75;3.40;;;;;;;2.90;74.83;101365.06;1088299;54;20050;-80
2022/02/26 02:22:26;;;;;;;7.55;3.25;;;;;;;3.03;74.76;101365.41;1088229;54;20051;-81
2022/02/26 02:23:33;;;;;;;10.07;3.85;;;;;;;3.02;74.52;101365.50;1088315;54;20023;-79
2022/02/26 02:24:35;;;;;;;10.68;3.85;;;;;;;2.92;74.76;101372.94;1088256;54;20042;-80
2022/02/26 02:25:45;;;;;;;8.23;3.45;;;;;;;2.92;74.94;101365.88;1088285;54;20038;-81
2022/02/26 02:26:49;;;;;;;9.98;4.00;;;;;;;2.93;74.59;101362.28;1088355;54;20035;-80
2022/02/26 02:27:55;;;;;;;9.73;3.53;;;;;;;2.89;74.92;101362.47;1099620;39;20674;-78
2022/02/26 02:28:58;;;;;;;11.52;4.85;;;;;;;2.77;75.39;101363.84;1088252;54;20676;-79
2022/02/26 02:30:03;;;;;;;9.68;4.10;;;;;;;2.87;75.21;101370.47;1129488;39;20650;-80
2022/02/26 02:31:06;;;;;;;9.50;3.55;;;;;;;2.92;74.83;101365.88;1088268;54;20837;-81
2022/02/26 02:32:11;;;;;;;8.23;3.60;;;;;;;2.89;74.74;101368.63;1088258;54;20018;-79
2022/02/26 02:33:23;;;;;;;8.45;3.80;;;;;;;2.87;75.13;101373.13;1088308;54;20038;-79
2022/02/26 02:34:25;;;;;;;8.20;4.20;;;;;;;2.75;75.08;101370.97;1088359;54;20034;-79
2022/02/26 02:35:39;;;;;;;10.20;4.00;;;;;;;2.73;75.44;101372.81;1088341;54;20010;-80
2022/02/26 02:36:43;;;;;;;10.25;3.95;;;;;;;2.85;75.14;101377.59;1088314;54;20026;-81
2022/02/26 02:37:51;;;;;;;6.78;3.40;;;;;;;2.90;74.87;101374.75;1088263;54;20693;-79
2022/02/26 02:38:53;;;;;;;7.28;2.92;;;;;;;2.96;74.74;101372.72;1088045;54;20037;-78
2022/02/26 02:40:10;;;;;;;9.02;3.60;;;;;;;2.93;74.80;101379.94;1088232;54;20015;-79
2022/02/26 02:41:15;;;;;;;9.68;3.60;;;;;;;2.94;74.45;101371.94;1087987;54;20616;-79
2022/02/26 02:42:27;;;;;;;7.63;3.25;;;;;;;3.01;74.33;101376.97;1089403;46;20643;-81
2022/02/26 02:43:31;;;;;;;9.70;3.50;;;;;;;2.85;74.72;101380.22;1088156;54;20082;-79
2022/02/26 02:44:43;;;;;;;6.40;3.20;;;;;;;2.78;75.18;101376.13;1088431;54;20022;-80
2022/02/26 02:45:54;;;;;;;11.95;4.05;;;;;;;2.82;75.13;101383.03;1088162;54;20021;-79
2022/02/26 02:46:56;;;;;;;7.97;3.35;;;;;;;2.78;74.88;101376.13;1088229;54;20695;-80
2022/02/26 02:48:01;;;;;;;9.60;3.45;;;;;;;2.73;75.07;101380.75;1088246;54;20037;-79
2022/02/26 02:49:03;;;;;;;10.15;4.13;;;;;;;2.64;75.43;101380.19;1087988;54;20691;-78
2022/02/26 02:50:10;;;;;;;9.95;4.07;;;;;;;2.69;75.51;101392.34;1105717;39;20594;-80
2022/02/26 02:51:11;;;;;;;10.43;4.43;;;;;;;2.63;75.56;101389.03;1088677;39;20634;-81
2022/02/26 02:52:20;;;;;;;9.77;3.92;;;;;;;2.58;76.16;101387.50;1088355;54;20039;-81
2022/02/26 02:53:27;;;;;;;9.00;3.85;;;;;;;2.58;75.91;101388.34;1088252;54;20014;-80
2022/02/26 02:54:29;;;;;;;9.93;4.70;;;;;;;2.55;76.21;101393.72;1088235;54;20022;-79
2022/02/26 02:55:36;;;;;;;7.57;3.83;;;;;;;2.52;76.20;101383.31;1088318;54;20023;-80
2022/02/26 02:56:38;;;;;;;7.53;3.30;;;;;;;2.59;75.86;101387.44;1088261;54;20014;-82
2022/02/26 02:57:50;;;;;;;7.95;4.03;;;;;;;2.62;75.87;101386.44;1088197;54;20785;-78
2022/02/26 02:58:52;;;;;;;10.27;4.47;;;;;;;2.63;75.83;101396.09;1088125;54;20687;-81
2022/02/26 03:00:04;;;;;;;7.75;3.65;;;;;;;2.54;75.95;101393.81;1088348;54;20045;-79
2022/02/26 03:01:07;;;;;;;11.77;4.13;;;;;;;2.50;76.30;101393.06;1088303;54;20664;-80
2022/02/26 03:02:16;;;;;;;9.73;4.07;;;;;;;2.49;76.37;101402.78;1088194;54;20043;-78
2022/02/26 03:03:18;;;;;;;10.52;4.05;;;;;;;2.62;75.80;101400.50;1087865;54;20027;-81
2022/02/26 03:04:22;;;;;;;8.10;3.72;;;;;;;2.63;75.88;101393.44;1088292;54;20034;-79
2022/02/26 03:05:27;;;;;;;8.48;4.10;;;;;;;2.76;75.49;101399.09;1095840;39;20665;-81
2022/02/26 03:06:34;;;;;;;8.88;3.53;;;;;;;2.69;75.54;101397.63;1088208;54;20816;-78
2022/02/26 03:07:39;;;;;;;12.15;3.92;;;;;;;2.61;75.71;101401.44;1088137;54;20647;-81
2022/02/26 03:08:48;;;;;;;9.20;3.80;;;;;;;2.57;76.08;101405.09;1088216;54;20023;-81
2022/02/26 03:09:53;;;;;;;7.95;3.90;;;;;;;2.60;75.61;101399.72;1091841;39;20580;-80
2022/02/26 03:10:57;;;;;;;7.72;4.10;;;;;;;2.60;75.96;101399.72;1088274;54;20766;-80
2022/02/26 03:12:17;;;;;;;8.35;3.60;;;;;;;2.73;75.48;101404.53;1088109;54;20675;-80
2022/02/26 03:13:23;;;;;;;6.82;3.42;;;;;;;2.86;74.89;101405.72;1101707;31;20683;-79
2022/02/26 03:14:27;;;;;;;8.13;3.45;;;;;;;2.84;75.05;101407.56;1088185;54;20053;-79
2022/02/26 03:15:30;;;;;;;8.05;3.67;;;;;;;2.93;74.90;101401.91;1088365;54;20033;-79
2022/02/26 03:16:35;;;;;;;5.75;3.35;;;;;;;3.04;74.44;101405.91;1088033;54;20042;-81
2022/02/26 03:17:37;;;;;;;6.25;3.33;;;;;;;3.03;74.31;101404.19;1087959;54;20046;-79
2022/02/26 03:18:41;;;;;;;6.88;3.40;;;;;;;3.12;74.22;101401.16;1088194;54;20026;-80
2022/02/26 03:19:49;;;;;;;8.68;2.90;;;;;;;3.17;74.01;101415.06;1088220;54;20039;-82
2022/02/26 03:20:54;;;;;;;6.88;3.25;;;;;;;3.19;73.82;101402.66;1088336;54;20014;-77
2022/02/26 03:21:56;;;;;;;7.13;3.10;;;;;;;3.21;73.94;101406.06;1088156;54;20015;-81
2022/02/26 03:23:00;;;;;;;7.38;3.13;;;;;;;3.23;73.85;101406.00;1088159;54;20023;-79
2022/02/26 03:24:10;;;;;;;10.25;3.20;;;;;;;3.17;73.96;101408.88;1091618;39;20681;-79
2022/02/26 03:25:27;;;;;;;11.60;4.00;;;;;;;3.09;74.15;101411.88;1088126;54;20061;-81
2022/02/26 03:26:29;;;;;;;7.75;3.63;;;;;;;3.15;74.11;101403.69;1088185;54;20074;-80
2022/02/26 03:27:33;;;;;;;9.60;4.25;;;;;;;3.19;73.82;101401.75;1088054;54;20104;-78
2022/02/26 03:28:35;;;;;;;6.78;3.33;;;;;;;3.27;73.71;101403.19;1088066;54;20019;-79
2022/02/26 03:29:42;;;;;;;7.18;3.55;;;;;;;3.23;73.88;101404.22;1088152;54;20026;-79
2022/02/26 03:30:44;;;;;;;6.22;3.65;;;;;;;3.24;73.77;101408.59;1088234;54;20030;-82
2022/02/26 03:31:59;;;;;;;9.80;3.40;;;;;;;3.27;73.92;101404.94;1088198;54;20735;-79
2022/02/26 03:33:01;;;;;;;7.57;3.95;;;;;;;3.30;73.66;101403.97;1087981;54;20059;-80
2022/02/26 03:34:07;;;;;;;8.18;4.35;;;;;;;3.33;73.50;101403.84;1088087;54;20037;-80
2022/02/26 03:35:10;;;;;;;8.10;4.03;;;;;;;3.39;73.26;101403.59;1088292;54;20094;-78
2022/02/26 03:36:14;;;;;;;6.63;3.20;;;;;;;3.41;73.46;101407.00;1088476;54;20042;-79
2022/02/26 03:37:19;;;;;;;8.23;3.42;;;;;;;3.43;73.08;101405.16;1088538;54;20023;-80
2022/02/26 03:38:27;;;;;;;8.07;3.28;;;;;;;3.38;73.25;101407.16;1088478;54;20026;-82
2022/02/26 03:39:33;;;;;;;7.75;3.72;;;;;;;3.26;73.47;101414.66;1088465;54;20045;-80
2022/02/26 03:40:39;;;;;;;9.43;4.60;;;;;;;3.30;73.50;101410.13;1088454;54;20014;-78
2022/02/26 03:41:41;;;;;;;8.40;3.67;;;;;;;3.37;73.30;101418.66;1088480;54;20031;-80
2022/02/26 03:43:05;;;;;;;7.55;3.38;;;;;;;3.37;73.30;101422.13;1088514;54;20030;-79
2022/02/26 03:44:08;;;;;;;6.72;3.50;;;;;;;3.45;73.03;101419.19;1092570;46;20045;-78
2022/02/26 03:45:15;;;;;;;9.80;4.18;;;;;;;3.37;73.15;101427.44;1094730;39;20665;-79
2022/02/26 03:46:17;;;;;;;9.20;4.30;;;;;;;3.24;73.44;101432.38;1088658;54;20059;-80
2022/02/26 03:47:22;;;;;;;10.82;3.80;;;;;;;3.17;73.60;101430.03;1088571;54;20027;-78
2022/02/26 03:48:33;;;;;;;11.63;4.57;;;;;;;3.06;74.33;101434.00;1088502;54;20022;-80
2022/02/26 03:49:35;;;;;;;9.27;5.07;;;;;;;3.01;74.32;101435.09;1088527;54;20084;-78
2022/02/26 03:50:46;;;;;;;9.05;4.93;;;;;;;2.91;74.79;101424.91;1088559;54;20037;-79
2022/02/26 03:51:48;;;;;;;10.77;4.70;;;;;;;2.84;74.93;101433.97;1090725;39;20708;-78
2022/02/26 03:52:55;;;;;;;8.70;4.80;;;;;;;3.01;74.66;101435.09;1088535;54;20011;-80
2022/02/26 03:54:07;;;;;;;11.27;4.43;;;;;;;3.00;74.64;101438.66;1088658;54;20043;-80
2022/02/26 03:55:15;;;;;;;8.90;4.70;;;;;;;3.11;74.25;101442.59;1088601;54;20042;-80
2022/02/26 03:56:17;;;;;;;14.45;5.35;;;;;;;3.12;74.21;101435.50;1088612;54;20047;-80
2022/02/26 03:57:22;;;;;;;9.10;4.30;;;;;;;3.17;73.95;101445.88;1088503;54;20107;-81
2022/02/26 03:58:24;;;;;;;9.32;4.13;;;;;;;3.22;73.81;101444.78;1090827;46;20014;-78
2022/02/26 03:59:31;;;;;;;8.20;4.28;;;;;;;3.26;73.59;101446.38;1088359;54;20834;-78
2022/02/26 04:00:33;;;;;;;7.05;3.55;;;;;;;3.35;73.32;101449.56;1088320;54;20699;-79
2022/02/26 04:01:45;;;;;;;6.18;3.35;;;;;;;3.40;73.20;101448.47;1088417;54;20015;-81
2022/02/26 04:02:47;;;;;;;7.20;3.47;;;;;;;3.46;72.99;101449.13;1088445;54;20027;-81
2022/02/26 04:03:52;;;;;;;6.05;3.40;;;;;;;3.45;72.91;101458.84;1087988;54;20030;-81
2022/02/26 04:05:10;;;;;;;6.90;3.55;;;;;;;3.46;72.56;101449.13;1094653;39;20730;-79
2022/02/26 04:06:12;;;;;;;6.75;3.17;;;;;;;3.48;72.82;101456.06;1088455;54;20035;-80
2022/02/26 04:07:17;;;;;;;7.85;3.85;;;;;;;3.49;72.64;101455.16;1088458;54;20038;-80
2022/02/26 04:08:19;;;;;;;7.07;3.83;;;;;;;3.51;72.54;101466.50;1088464;54;20026;-80
2022/02/26 04:09:30;;;;;;;8.13;4.10;;;;;;;3.51;72.61;101461.22;1088418;54;20754;-81
2022/02/26 04:10:38;;;;;;;8.65;3.50;;;;;;;3.50;72.66;101456.00;1088417;54;20034;-80
2022/02/26 04:11:40;;;;;;;7.38;3.65;;;;;;;3.47;72.84;101464.94;1093550;39;20705;-80
2022/02/26 04:12:51;;;;;;;8.52;3.90;;;;;;;3.46;72.68;101471.13;1088398;54;20231;-80
2022/02/26 04:13:53;;;;;;;8.45;4.38;;;;;;;3.50;72.83;101469.22;1088462;54;20651;-80
2022/02/26 04:15:11;;;;;;;8.23;3.47;;;;;;;3.52;72.65;101467.38;1088436;54;20024;-79
2022/02/26 04:16:13;;;;;;;8.18;4.43;;;;;;;3.50;72.92;101470.06;1088401;54;20703;-80
2022/02/26 04:17:18;;;;;;;9.77;3.85;;;;;;;3.57;72.49;101468.03;1088530;54;20014;-79
2022/02/26 04:18:24;;;;;;;8.63;3.97;;;;;;;3.50;72.71;101469.22;1088497;54;20719;-82
2022/02/26 04:19:28;;;;;;;6.85;4.15;;;;;;;3.56;72.67;101476.88;1088376;54;20013;-79
2022/02/26 04:20:31;;;;;;;8.77;4.35;;;;;;;3.57;72.45;101471.56;1088409;54;20027;-80
2022/02/26 04:21:36;;;;;;;7.82;4.07;;;;;;;3.59;72.45;101468.84;1089112;46;20031;-80
2022/02/26 04:22:41;;;;;;;9.38;4.28;;;;;;;3.54;72.75;101466.38;1088262;54;20038;-80
2022/02/26 04:23:46;;;;;;;9.68;4.90;;;;;;;3.56;72.34;101464.53;1088392;54;20037;-80
2022/02/26 04:24:56;;;;;;;9.48;3.88;;;;;;;3.64;72.45;101471.28;1108820;39;20653;-80
2022/02/26 04:26:03;;;;;;;6.95;3.90;;;;;;;3.65;72.41;101462.44;1088489;54;20030;-80
2022/02/26 04:27:05;;;;;;;8.18;4.43;;;;;;;3.68;72.33;101467.59;1088411;54;20037;-79
2022/02/26 04:28:10;;;;;;;9.10;4.05;;;;;;;3.69;72.13;101474.59;1088309;54;20035;-81
2022/02/26 04:29:12;;;;;;;7.85;3.80;;;;;;;3.62;72.28;101468.72;1088428;54;20029;-81
2022/02/26 04:30:20;;;;;;;7.93;4.32;;;;;;;3.58;72.13;101473.28;1088300;54;20027;-79
2022/02/26 04:31:25;;;;;;;7.85;4.15;;;;;;;3.56;72.50;101469.84;1100485;39;20654;-80
2022/02/26 04:32:27;;;;;;;7.10;4.22;;;;;;;3.54;72.21;101478.75;1088265;54;20026;-79
2022/02/26 04:33:40;;;;;;;8.65;5.13;;;;;;;3.51;72.27;101479.72;1089966;31;20802;-78
2022/02/26 04:34:42;;;;;;;10.35;4.22;;;;;;;3.53;72.35;101484.97;1088391;54;20031;-81
2022/02/26 04:35:48;;;;;;;10.88;5.15;;;;;;;3.47;72.44;101478.16;1088396;54;20809;-79
2022/02/26 04:36:52;;;;;;;9.25;4.72;;;;;;;3.37;72.61;101482.09;1088409;54;20885;-80
2022/02/26 04:37:54;;;;;;;10.50;5.45;;;;;;;3.35;73.01;101482.19;1088401;54;20034;-78
2022/02/26 04:39:03;;;;;;;7.13;4.45;;;;;;;3.42;72.77;101486.28;1088369;46;20011;-78
2022/02/26 04:40:09;;;;;;;9.55;4.65;;;;;;;3.25;72.92;101479.03;1088332;54;20026;-79
2022/02/26 04:41:17;;;;;;;7.25;4.72;;;;;;;3.36;73.03;101483.88;1091849;39;20638;-79
2022/02/26 04:42:19;;;;;;;7.45;4.53;;;;;;;3.43;72.58;101489.75;1088301;54;20038;-79
2022/02/26 04:43:23;;;;;;;7.68;4.57;;;;;;;3.47;72.59;101487.84;1088334;54;20030;-78
2022/02/26 04:44:25;;;;;;;9.63;4.50;;;;;;;3.48;72.64;101490.47;1088336;54;20030;-80
2022/02/26 04:45:29;;;;;;;11.02;5.05;;;;;;;3.38;72.77;101489.97;1088141;54;20027;-81
2022/02/26 04:46:31;;;;;;;8.55;4.65;;;;;;;3.39;72.67;101483.75;1088221;54;20651;-79
2022/02/26 04:47:35;;;;;;;9.48;4.43;;;;;;;3.45;72.54;101490.56;1088307;54;20049;-81
2022/02/26 04:48:40;;;;;;;8.18;4.15;;;;;;;3.50;72.30;101496.50;1088274;54;20035;-82
2022/02/26 04:49:43;;;;;;;7.90;4.32;;;;;;;3.49;72.20;101497.47;1088307;54;20050;-79
2022/02/26 04:50:47;;;;;;;7.45;4.47;;;;;;;3.50;72.28;101485.94;1088402;54;20034;-78
2022/02/26 04:51:49;;;;;;;7.63;3.95;;;;;;;3.50;72.21;101490.38;1088321;54;20046;-79
2022/02/26 04:52:53;;;;;;;8.18;3.83;;;;;;;3.53;72.17;101491.09;1092873;39;20756;-77
2022/02/26 04:53:55;;;;;;;8.90;4.38;;;;;;;3.46;72.51;101489.66;1088199;54;20023;-78
2022/02/26 04:54:59;;;;;;;8.57;4.38;;;;;;;3.50;72.24;101493.88;1088139;54;20120;-79
2022/02/26 04:56:01;;;;;;;9.98;4.38;;;;;;;3.52;72.08;101494.66;1087967;54;20038;-80
2022/02/26 04:57:08;;;;;;;7.57;4.45;;;;;;;3.53;72.21;101490.25;1088083;54;20116;-79
2022/02/26 04:58:10;;;;;;;8.68;4.93;;;;;;;3.48;72.34;101489.56;1088220;54;20742;-80
2022/02/26 04:59:15;;;;;;;7.38;4.47;;;;;;;3.47;72.23;101499.31;1088181;54;20037;-79
2022/02/26 05:00:17;;;;;;;9.98;4.82;;;;;;;3.46;72.41;101499.34;1088133;54;20046;-80
2022/02/26 05:01:24;;;;;;;9.68;4.65;;;;;;;3.41;72.43;101494.25;1096471;39;20639;-79
2022/02/26 05:02:26;;;;;;;8.25;5.00;;;;;;;3.37;72.26;101490.03;1088434;54;20033;-79
2022/02/26 05:03:37;;;;;;;11.98;5.57;;;;;;;3.33;72.76;101499.88;1089828;39;20674;-80
2022/02/26 05:04:39;;;;;;;9.95;5.07;;;;;;;3.33;72.65;101488.41;1089802;39;20770;-79
2022/02/26 05:05:44;;;;;;;9.32;5.32;;;;;;;3.36;72.63;101486.50;1088444;54;20034;-81
2022/02/26 05:06:46;;;;;;;9.60;4.47;;;;;;;3.34;72.56;101490.16;1088288;54;20034;-80
2022/02/26 05:07:50;;;;;;;9.45;4.85;;;;;;;3.32;72.48;101491.97;1088389;54;20030;-78
2022/02/26 05:08:55;;;;;;;9.23;5.05;;;;;;;3.31;72.63;101492.94;1088207;54;20023;-80
2022/02/26 05:09:57;;;;;;;10.75;5.20;;;;;;;3.30;72.55;101489.41;1088430;54;20051;-79
2022/02/26 05:11:08;;;;;;;9.93;5.15;;;;;;;3.28;72.77;101491.25;1088469;54;20746;-79
2022/02/26 05:12:13;;;;;;;9.38;4.95;;;;;;;3.31;72.84;101495.56;1088344;54;20030;-79
2022/02/26 05:13:19;;;;;;;12.05;4.78;;;;;;;3.32;72.58;101491.97;1088161;54;20030;-79
2022/02/26 05:14:20;;;;;;;8.23;4.70;;;;;;;3.34;72.39;101495.44;1088368;54;20817;-79
2022/02/26 05:15:28;;;;;;;8.68;4.53;;;;;;;3.38;72.39;101497.03;1090435;39;20583;-80
2022/02/26 05:16:32;;;;;;;10.80;4.82;;;;;;;3.39;72.52;101496.97;1088379;54;20029;-80
2022/02/26 05:17:36;;;;;;;8.07;4.97;;;;;;;3.35;72.66;101492.75;1088406;54;20061;-80
2022/02/26 05:18:41;;;;;;;10.32;5.43;;;;;;;3.33;72.42;101491.06;1088182;54;20034;-80
2022/02/26 05:19:43;;;;;;;9.70;4.93;;;;;;;3.28;72.73;101494.78;1093119;39;20665;-80